KDEQ

Details ICAO KDEQ
Name J LYNN HELMS SEVIER CO
Region United States
Timezone America/Chicago (UTC-5.0)
Plans Departing 1
Arriving 0
Stats Elevation 355 ft / 108 m (AMSL)
Location 34.046996° -94.399366°
Runways 1
Magnetic Variation 1.698° E
Sunrise 2018-05-22 11:12:59 UTC / 2018-05-22 06:12:59 Local
Sunset 2018-05-23 01:18:26 UTC / 2018-05-22 20:18:26 Local
Advertisement - Login to hide

Runways

ID Width Length Bearing (true) Bearing (mag) Surface Threshold Offset Overrun Length
08 75 ft / 23 m 4,992 ft / 1,522 m 83.43° 81.73° Asphalt 0 ft / 0 m 0 ft / 0 m
26 75 ft / 23 m 4,992 ft / 1,522 m 263.44° 261.74° Asphalt 0 ft / 0 m 0 ft / 0 m

Map

Weather


0- 5 10 15 20 25 30 35+ Temperature / ° C

Clouds and Precipitation
Forecast for 2018-05-23 06:00 UTC. Updated an hour ago

Ground ~20,000 ft ~40,000 ft Winds

METAR

KDEQ 230353Z AUTO 10003KT 10SM CLR 22/22 A3000 RMK AO2 SLP154 T02170217

TAF

Not found

Frequencies

Recorded 134.07 MHz ASOS
Unicom 122.80 MHz CTAF/UNICOM
Warning: Do not use this data for real-world aviation or navigation. No guarantee of current accuracy is given.